FK-0002 weather

Pebble Island Landing Strip
Pebble Island Settlement, Falkland Islands

Public forecast

Using degrees Celsius for public forecast. Weather courtesy of forecast.io.

Closest aviation weather report (METAR) to Pebble Island Landing Strip

Closest report is Mount Pleasant Airport, 53.2 nm (98.5 km) SE. Retrieved 2020/08/03 11:20 UTC (36 minutes ago):

EGYP 031120Z 35015KT 9999 FEW015 BKN120 05/02 Q1011 NOSIG

Closest aviation forecast (TAF) to Pebble Island Landing Strip

Closest forecast is Mount Pleasant Airport, 53.2 nm (98.5 km) SE. Retrieved 2020/08/03 09:33 UTC (2 hours ago):

TAF EGYP 030719Z 0309/0403 34010KT CAVOK PROB30 0309/0312 2000 BR BECMG 0310/0312 01015G25KT 520003 PROB40 TEMPO 0311/0402 VRB08KT SCT010 560003 TEMPO 0312/0323 36025G35KT 530003 PROB30 TEMPO 0315/0320 34035G45KT TEMPO 0320/0403 4000 -RADZ PROB30 TEMPO 0321/0403 2000 RADZ SCT004 BECMG 0400/0403 33010KT 50////